createdAt,value
2023-01-19T00:00:10.532Z,0.91
2023-01-19T00:01:10.531Z,0.94
2023-01-19T00:02:10.506Z,0.93
2023-01-19T00:03:10.535Z,0.94
2023-01-19T00:04:10.508Z,0.96
2023-01-19T00:05:10.528Z,1
2023-01-19T00:06:10.558Z,1.02
2023-01-19T00:07:10.508Z,1.01
2023-01-19T00:08:10.630Z,1.02
2023-01-19T00:09:10.514Z,1
2023-01-19T00:10:10.508Z,1
2023-01-19T00:11:10.511Z,1
2023-01-19T00:12:10.735Z,0.97
2023-01-19T00:13:10.512Z,0.99
2023-01-19T00:14:10.511Z,1.02
2023-01-19T00:15:10.520Z,1.05
2023-01-19T00:16:10.540Z,1.04
2023-01-19T00:17:10.507Z,1.05
2023-01-19T00:18:11.511Z,1.04
2023-01-19T00:19:10.507Z,1.03
2023-01-19T00:20:10.515Z,1
2023-01-19T00:21:10.499Z,0.97
2023-01-19T00:22:10.506Z,0.94
2023-01-19T00:23:10.502Z,0.95
2023-01-19T00:24:10.508Z,0.98
2023-01-19T00:25:10.509Z,1
2023-01-19T00:26:10.506Z,1.02
2023-01-19T00:27:10.513Z,1.02
2023-01-19T00:28:10.499Z,1.04
2023-01-19T00:29:10.505Z,1.02
2023-01-19T00:30:10.508Z,1.02
2023-01-19T00:31:10.558Z,1.02
2023-01-19T00:32:10.531Z,1.02
2023-01-19T00:33:10.508Z,1.03
2023-01-19T00:34:10.703Z,1.04
2023-01-19T00:35:10.519Z,1.05
2023-01-19T00:36:10.521Z,1.06
2023-01-19T00:37:10.529Z,1.07
2023-01-19T00:38:10.510Z,1.08
2023-01-19T00:39:10.514Z,1.07
2023-01-19T00:40:10.541Z,1.09
2023-01-19T00:41:10.507Z,1.08
2023-01-19T00:42:10.504Z,1.07
2023-01-19T00:43:10.499Z,1.07
2023-01-19T00:44:10.524Z,1.04
2023-01-19T00:45:10.523Z,1.04
2023-01-19T00:46:10.549Z,1.06
2023-01-19T00:47:10.508Z,1.07
2023-01-19T00:48:10.515Z,1.08
2023-01-19T00:49:10.527Z,1.08
2023-01-19T00:50:10.497Z,1.07
2023-01-19T00:51:10.525Z,1.06
2023-01-19T00:52:10.505Z,1.04
2023-01-19T00:53:10.502Z,1.01
2023-01-19T00:54:10.533Z,1.01
2023-01-19T00:55:10.508Z,1
2023-01-19T00:56:10.501Z,1.02
2023-01-19T00:57:10.505Z,1.05
2023-01-19T00:58:10.509Z,1.06
2023-01-19T00:59:10.511Z,1.06
2023-01-19T01:00:10.530Z,1.06
2023-01-19T01:01:10.546Z,1.11
2023-01-19T01:02:10.631Z,1.12
2023-01-19T01:03:10.669Z,1.13
2023-01-19T01:04:10.519Z,1.13
2023-01-19T01:05:10.532Z,1.13
2023-01-19T01:06:10.511Z,1.13
2023-01-19T01:07:10.499Z,1.11
2023-01-19T01:08:10.512Z,1.08
2023-01-19T01:09:10.506Z,1.08
2023-01-19T01:10:10.526Z,1.09
2023-01-19T01:11:10.509Z,1.09
2023-01-19T01:12:10.503Z,1.11
2023-01-19T01:13:20.662Z,1.11
2023-01-19T01:14:10.520Z,1.14
2023-01-19T01:15:10.598Z,1.18
2023-01-19T01:16:10.548Z,1.22
2023-01-19T01:17:10.504Z,1.23
2023-01-19T01:18:10.510Z,1.23
2023-01-19T01:19:10.510Z,1.24
2023-01-19T01:20:10.520Z,1.24
2023-01-19T01:21:10.511Z,1.22
2023-01-19T01:22:10.500Z,1.25
2023-01-19T01:23:10.507Z,1.25
2023-01-19T01:24:10.515Z,1.27
2023-01-19T01:25:10.513Z,1.28
2023-01-19T01:26:10.684Z,1.28
2023-01-19T01:27:10.495Z,1.3
2023-01-19T01:28:10.722Z,1.29
2023-01-19T01:29:10.532Z,1.26
2023-01-19T01:30:10.775Z,1.24
2023-01-19T01:31:10.541Z,1.24
2023-01-19T01:32:10.788Z,1.2
2023-01-19T01:33:10.510Z,1.21
2023-01-19T01:34:10.511Z,1.24
2023-01-19T01:35:10.503Z,1.24
2023-01-19T01:36:10.567Z,1.21
2023-01-19T01:37:10.494Z,1.21
2023-01-19T01:38:10.505Z,1.21
2023-01-19T01:39:10.518Z,1.2
2023-01-19T01:40:10.510Z,1.19
2023-01-19T01:41:10.517Z,1.17
2023-01-19T01:42:10.512Z,1.15
2023-01-19T01:43:10.512Z,1.16
2023-01-19T01:44:10.516Z,1.15
2023-01-19T01:45:10.504Z,1.14
2023-01-19T01:46:10.547Z,1.14
2023-01-19T01:47:10.514Z,1.17
2023-01-19T01:48:10.500Z,1.17
2023-01-19T01:49:10.526Z,1.19
2023-01-19T01:50:10.509Z,1.2
2023-01-19T01:51:10.498Z,1.2
2023-01-19T01:52:10.504Z,1.21
2023-01-19T01:53:10.655Z,1.19
2023-01-19T01:54:10.518Z,1.18
2023-01-19T01:55:10.511Z,1.18
2023-01-19T01:56:10.517Z,1.18
2023-01-19T01:57:10.505Z,1.21
2023-01-19T01:58:10.520Z,1.2
2023-01-19T01:59:10.513Z,1.19
2023-01-19T02:00:10.545Z,1.2
2023-01-19T02:01:10.689Z,1.2
2023-01-19T02:02:11.503Z,1.2
2023-01-19T02:03:10.519Z,1.19
2023-01-19T02:04:10.506Z,1.2
2023-01-19T02:05:10.502Z,1.21
2023-01-19T02:06:10.499Z,1.21
2023-01-19T02:07:10.502Z,1.21
2023-01-19T02:08:10.507Z,1.19
2023-01-19T02:09:10.501Z,1.17
2023-01-19T02:10:10.520Z,1.13
2023-01-19T02:11:10.512Z,1.13
2023-01-19T02:12:10.502Z,1.11
2023-01-19T02:13:10.519Z,1.1
2023-01-19T02:14:10.512Z,1.1
2023-01-19T02:15:10.499Z,1.07
2023-01-19T02:16:10.670Z,1.05
2023-01-19T02:17:10.504Z,1.04
2023-01-19T02:18:10.500Z,1.06
2023-01-19T02:19:10.503Z,1.07
2023-01-19T02:20:10.517Z,1.11
2023-01-19T02:21:10.512Z,1.13
2023-01-19T02:22:10.494Z,1.16
2023-01-19T02:23:10.506Z,1.21
2023-01-19T02:24:10.508Z,1.22
2023-01-19T02:25:10.500Z,1.24
2023-01-19T02:26:10.527Z,1.25
2023-01-19T02:27:10.500Z,1.26
2023-01-19T02:28:10.501Z,1.26
2023-01-19T02:29:10.685Z,1.28
2023-01-19T02:30:10.526Z,1.28
2023-01-19T02:31:10.518Z,1.27
2023-01-19T02:32:10.501Z,1.29
2023-01-19T02:33:10.504Z,1.32
2023-01-19T02:34:10.523Z,1.34
2023-01-19T02:35:10.506Z,1.34
2023-01-19T02:36:10.506Z,1.34
2023-01-19T02:37:10.584Z,1.36
2023-01-19T02:38:10.508Z,1.35
2023-01-19T02:39:10.871Z,1.37
2023-01-19T02:40:10.522Z,1.38
2023-01-19T02:41:10.694Z,1.39
2023-01-19T02:42:10.910Z,1.42
2023-01-19T02:43:10.685Z,1.41
2023-01-19T02:44:10.523Z,1.4
2023-01-19T02:45:10.754Z,1.4
2023-01-19T02:46:11.009Z,1.41
2023-01-19T02:47:11.266Z,1.42
2023-01-19T02:48:10.512Z,1.41
2023-01-19T02:49:10.516Z,1.4
2023-01-19T02:50:10.519Z,1.37
2023-01-19T02:51:10.510Z,1.34
2023-01-19T02:52:10.761Z,1.34
2023-01-19T02:53:10.504Z,1.34
2023-01-19T02:54:10.523Z,1.36
2023-01-19T02:55:10.503Z,1.4
2023-01-19T02:56:10.548Z,1.45
2023-01-19T02:57:11.135Z,1.5
2023-01-19T02:58:11.847Z,1.49
2023-01-19T02:59:09.974Z,1.49
2023-01-19T03:00:10.296Z,1.5
2023-01-19T03:01:10.662Z,1.5
2023-01-19T03:02:10.988Z,1.51
2023-01-19T03:03:10.510Z,1.54
2023-01-19T03:04:10.793Z,1.55
2023-01-19T03:05:10.573Z,1.54
2023-01-19T03:06:10.860Z,1.47
2023-01-19T03:07:10.714Z,1.48
2023-01-19T03:08:10.776Z,1.48
2023-01-19T03:09:10.628Z,1.46
2023-01-19T03:10:10.821Z,1.43
2023-01-19T03:11:11.163Z,1.44
2023-01-19T03:12:11.003Z,1.45
2023-01-19T03:13:10.728Z,1.47
2023-01-19T03:14:10.977Z,1.46
2023-01-19T03:15:10.511Z,1.41
2023-01-19T03:16:10.569Z,1.4
2023-01-19T03:17:10.764Z,1.35
2023-01-19T03:18:10.515Z,1.36
2023-01-19T03:19:10.496Z,1.36
2023-01-19T03:20:10.503Z,1.37
2023-01-19T03:21:10.527Z,1.38
2023-01-19T03:22:10.503Z,1.41
2023-01-19T03:23:10.504Z,1.41
2023-01-19T03:24:10.505Z,1.45
2023-01-19T03:25:10.511Z,1.46
2023-01-19T03:26:10.561Z,1.46
2023-01-19T03:27:10.508Z,1.48
2023-01-19T03:28:10.520Z,1.48
2023-01-19T03:29:10.500Z,1.49
2023-01-19T03:30:10.495Z,1.5
2023-01-19T03:31:10.552Z,1.53
2023-01-19T03:32:10.511Z,1.52
2023-01-19T03:33:10.508Z,1.49
2023-01-19T03:34:10.501Z,1.51
2023-01-19T03:35:10.501Z,1.48
2023-01-19T03:36:10.532Z,1.46
2023-01-19T03:37:10.518Z,1.44
2023-01-19T03:38:10.503Z,1.42
2023-01-19T03:39:10.498Z,1.42
2023-01-19T03:40:10.508Z,1.43
2023-01-19T03:41:10.496Z,1.43
2023-01-19T03:42:10.734Z,1.43
2023-01-19T03:43:10.520Z,1.41
2023-01-19T03:44:10.514Z,1.37
2023-01-19T03:45:10.512Z,1.35
2023-01-19T03:46:10.906Z,1.4
2023-01-19T03:47:10.506Z,1.44
2023-01-19T03:48:10.509Z,1.43
2023-01-19T03:49:10.530Z,1.41
2023-01-19T03:50:10.515Z,1.4
2023-01-19T03:51:10.505Z,1.41
2023-01-19T03:52:10.515Z,1.4
2023-01-19T03:53:10.609Z,1.41
2023-01-19T03:54:10.610Z,1.38
2023-01-19T03:55:10.530Z,1.39
2023-01-19T03:56:10.507Z,1.38
2023-01-19T03:57:10.516Z,1.38
2023-01-19T03:58:10.509Z,1.39
2023-01-19T03:59:10.502Z,1.39
2023-01-19T04:00:10.515Z,1.36
2023-01-19T04:01:10.590Z,1.36
2023-01-19T04:02:10.585Z,1.36
2023-01-19T04:03:10.539Z,1.35
2023-01-19T04:04:10.505Z,1.35
2023-01-19T04:05:10.524Z,1.4
2023-01-19T04:06:10.498Z,1.46
2023-01-19T04:07:10.527Z,1.49
2023-01-19T04:08:10.505Z,1.47
2023-01-19T04:09:10.535Z,1.47
2023-01-19T04:10:10.494Z,1.47
2023-01-19T04:11:10.506Z,1.45
2023-01-19T04:12:10.585Z,1.43
2023-01-19T04:13:10.518Z,1.42
2023-01-19T04:14:10.499Z,1.44
2023-01-19T04:15:10.505Z,1.49
2023-01-19T04:16:10.550Z,1.49
2023-01-19T04:17:10.654Z,1.49
2023-01-19T04:18:10.503Z,1.48
2023-01-19T04:19:10.500Z,1.48
2023-01-19T04:20:10.517Z,1.46
2023-01-19T04:21:10.511Z,1.47
2023-01-19T04:22:10.751Z,1.47
2023-01-19T04:23:10.610Z,1.5
2023-01-19T04:24:10.533Z,1.53
2023-01-19T04:25:10.507Z,1.55
2023-01-19T04:26:10.501Z,1.59
2023-01-19T04:27:10.914Z,1.64
2023-01-19T04:28:10.515Z,1.69
2023-01-19T04:29:10.511Z,1.73
2023-01-19T04:30:10.529Z,1.82
2023-01-19T04:31:10.602Z,1.86
2023-01-19T04:32:10.962Z,1.86
2023-01-19T04:33:10.502Z,1.89
2023-01-19T04:34:10.516Z,1.89
2023-01-19T04:35:10.503Z,1.87
2023-01-19T04:36:10.549Z,1.9
2023-01-19T04:37:10.526Z,1.93
2023-01-19T04:38:10.499Z,1.96
2023-01-19T04:39:10.501Z,1.96
2023-01-19T04:40:10.515Z,1.97
2023-01-19T04:41:10.496Z,1.94
2023-01-19T04:42:10.537Z,1.93
2023-01-19T04:43:10.502Z,1.95
2023-01-19T04:44:10.504Z,1.97
2023-01-19T04:45:10.508Z,1.99
2023-01-19T04:46:10.546Z,1.98
2023-01-19T04:47:10.500Z,2
2023-01-19T04:48:10.503Z,2.05
2023-01-19T04:49:10.506Z,2.09
2023-01-19T04:50:10.532Z,2.09
2023-01-19T04:51:10.674Z,2.09
2023-01-19T04:52:10.502Z,2.1
2023-01-19T04:53:10.507Z,2.11
2023-01-19T04:54:10.516Z,2.09
2023-01-19T04:55:10.547Z,2.09
2023-01-19T04:56:10.502Z,2.1
2023-01-19T04:57:10.508Z,2.11
2023-01-19T04:58:10.502Z,2.14
2023-01-19T04:59:10.510Z,2.12
2023-01-19T05:00:11.892Z,2.12
2023-01-19T05:01:11.751Z,2.13
2023-01-19T05:02:10.593Z,2.11
2023-01-19T05:03:10.782Z,2.09
2023-01-19T05:04:10.735Z,2.11
2023-01-19T05:05:10.514Z,2.1
2023-01-19T05:06:10.512Z,2.11
2023-01-19T05:07:10.744Z,2.09
2023-01-19T05:08:10.519Z,2.08
2023-01-19T05:09:10.504Z,2.09
2023-01-19T05:10:10.519Z,2.09
2023-01-19T05:11:10.511Z,2.1
2023-01-19T05:12:10.536Z,2.09
2023-01-19T05:13:10.523Z,2.1
2023-01-19T05:14:10.508Z,2.14
2023-01-19T05:15:10.513Z,2.17
2023-01-19T05:16:10.586Z,2.21
2023-01-19T05:17:10.558Z,2.25
2023-01-19T05:18:10.521Z,2.24
2023-01-19T05:19:10.519Z,2.23
2023-01-19T05:20:10.535Z,2.23
2023-01-19T05:21:10.521Z,2.26
2023-01-19T05:22:10.538Z,2.26
2023-01-19T05:23:10.571Z,2.24
2023-01-19T05:24:10.673Z,2.25
2023-01-19T05:25:10.513Z,2.21
2023-01-19T05:26:11.505Z,2.18
2023-01-19T05:27:10.500Z,2.18
2023-01-19T05:28:10.514Z,2.15
2023-01-19T05:29:10.502Z,2.16
2023-01-19T05:30:10.505Z,2.15
2023-01-19T05:31:10.611Z,2.13
2023-01-19T05:32:10.510Z,2.15
2023-01-19T05:33:10.515Z,2.13
2023-01-19T05:34:10.501Z,2.13
2023-01-19T05:35:10.501Z,2.17
2023-01-19T05:36:10.522Z,2.16
2023-01-19T05:37:10.747Z,2.17
2023-01-19T05:38:10.530Z,2.17
2023-01-19T05:39:10.504Z,2.14
2023-01-19T05:40:10.511Z,2.13
2023-01-19T05:41:10.511Z,2.14
2023-01-19T05:42:10.512Z,2.12
2023-01-19T05:43:10.525Z,2.12
2023-01-19T05:44:10.516Z,2.09
2023-01-19T05:45:10.516Z,2.11
2023-01-19T05:46:10.515Z,2.1
2023-01-19T05:47:10.507Z,2.08
2023-01-19T05:48:10.698Z,2.09
2023-01-19T05:49:10.533Z,2.07
2023-01-19T05:50:10.499Z,2.02
2023-01-19T05:51:10.509Z,1.89
2023-01-19T05:52:10.510Z,1.81
2023-01-19T05:53:10.500Z,1.65
2023-01-19T05:54:10.505Z,1.56
2023-01-19T05:55:10.514Z,1.42
2023-01-19T05:56:10.517Z,1.31
2023-01-19T05:57:10.505Z,1.2
2023-01-19T05:58:10.511Z,1.11
2023-01-19T05:59:10.504Z,1.03
2023-01-19T06:00:10.504Z,0.95
2023-01-19T06:01:10.543Z,0.89
2023-01-19T06:02:10.578Z,0.83
2023-01-19T06:03:10.521Z,0.81
2023-01-19T06:04:10.518Z,0.77
2023-01-19T06:05:10.504Z,0.75
2023-01-19T06:06:10.511Z,0.73
2023-01-19T06:07:10.528Z,0.7
2023-01-19T06:08:10.499Z,0.69
2023-01-19T06:09:10.510Z,0.71
2023-01-19T06:10:10.501Z,0.71
2023-01-19T06:11:10.504Z,0.72
2023-01-19T06:12:10.496Z,0.73
2023-01-19T06:13:10.507Z,0.75
2023-01-19T06:14:10.512Z,0.76
2023-01-19T06:15:10.611Z,0.77
2023-01-19T06:16:10.802Z,0.78
2023-01-19T06:17:10.987Z,0.78
2023-01-19T06:18:10.740Z,0.78
2023-01-19T06:19:10.576Z,0.79
2023-01-19T06:20:10.847Z,0.77
2023-01-19T06:21:11.052Z,0.77
2023-01-19T06:22:10.765Z,0.75
2023-01-19T06:23:10.544Z,0.75
2023-01-19T06:24:10.506Z,0.75
2023-01-19T06:25:10.503Z,0.74
2023-01-19T06:26:10.497Z,0.7
2023-01-19T06:27:10.499Z,0.71
2023-01-19T06:28:10.580Z,0.72
2023-01-19T06:29:10.498Z,0.73
2023-01-19T06:30:10.513Z,0.75
2023-01-19T06:31:10.539Z,0.78
2023-01-19T06:32:10.509Z,0.79
2023-01-19T06:33:10.509Z,0.78
2023-01-19T06:34:10.507Z,0.8
2023-01-19T06:35:10.500Z,0.8
2023-01-19T06:36:10.540Z,0.8
2023-01-19T06:37:10.507Z,0.83
2023-01-19T06:38:10.496Z,0.85
2023-01-19T06:39:10.500Z,0.85
2023-01-19T06:40:11.116Z,0.86
2023-01-19T06:41:10.502Z,0.86
2023-01-19T06:42:10.622Z,0.87
2023-01-19T06:43:10.929Z,0.86
2023-01-19T06:44:10.816Z,0.87
2023-01-19T06:45:10.206Z,0.88
2023-01-19T06:46:10.491Z,0.88
2023-01-19T06:47:14.838Z,0.88
2023-01-19T06:48:11.031Z,0.87
2023-01-19T06:49:10.703Z,0.85
2023-01-19T06:50:10.513Z,0.86
2023-01-19T06:51:10.506Z,0.86
2023-01-19T06:52:10.756Z,0.84
2023-01-19T06:53:10.508Z,0.82
2023-01-19T06:54:10.531Z,0.82
2023-01-19T06:55:10.507Z,0.8
2023-01-19T06:56:10.540Z,0.78
2023-01-19T06:57:10.509Z,0.77
2023-01-19T06:58:10.505Z,0.76
2023-01-19T06:59:10.503Z,0.74
2023-01-19T07:00:10.507Z,0.73
2023-01-19T07:01:10.743Z,0.73
2023-01-19T07:02:27.171Z,0.73
2023-01-19T07:03:10.626Z,0.71
2023-01-19T07:04:10.508Z,0.69
2023-01-19T07:05:10.525Z,0.69
2023-01-19T07:06:10.521Z,0.71
2023-01-19T07:07:10.524Z,0.74
2023-01-19T07:08:10.499Z,0.73
2023-01-19T07:09:10.512Z,0.72
2023-01-19T07:10:10.510Z,0.7
2023-01-19T07:11:21.636Z,0.7
2023-01-19T07:12:10.508Z,0.65
2023-01-19T07:13:10.504Z,0.61
2023-01-19T07:14:10.505Z,0.57
2023-01-19T07:15:10.502Z,0.51
2023-01-19T07:16:10.508Z,0.48
2023-01-19T07:17:10.546Z,0.44
2023-01-19T07:18:10.536Z,0.41
2023-01-19T07:19:10.532Z,0.39
2023-01-19T07:20:10.527Z,0.38
2023-01-19T07:21:10.631Z,0.35
2023-01-19T07:22:10.510Z,0.33
2023-01-19T07:23:10.507Z,0.33
2023-01-19T07:24:10.534Z,0.29
2023-01-19T07:25:10.505Z,0.29
2023-01-19T07:26:10.732Z,0.27
2023-01-19T07:27:10.516Z,0.24
2023-01-19T07:28:10.805Z,0.26
2023-01-19T07:29:10.527Z,0.28
2023-01-19T07:30:10.795Z,0.3
2023-01-19T07:31:10.639Z,0.31
2023-01-19T07:32:10.781Z,0.33
2023-01-19T07:33:10.655Z,0.36
2023-01-19T07:34:13.518Z,0.38
2023-01-19T07:35:10.674Z,0.38
2023-01-19T07:36:10.541Z,0.39
2023-01-19T07:37:10.759Z,0.41
2023-01-19T07:38:10.557Z,0.43
2023-01-19T07:39:10.499Z,0.45
2023-01-19T07:40:10.517Z,0.48
2023-01-19T07:41:10.505Z,0.48
2023-01-19T07:42:10.505Z,0.5
2023-01-19T07:43:10.519Z,0.54
2023-01-19T07:44:10.505Z,0.55
2023-01-19T07:45:10.501Z,0.55
2023-01-19T07:46:10.548Z,0.55
2023-01-19T07:47:10.510Z,0.55
2023-01-19T07:48:10.547Z,0.53
2023-01-19T07:49:10.508Z,0.5
2023-01-19T07:50:10.518Z,0.5
2023-01-19T07:51:13.565Z,0.51
2023-01-19T07:52:10.512Z,0.49
2023-01-19T07:53:10.522Z,0.51
2023-01-19T07:54:10.503Z,0.49
2023-01-19T07:55:10.517Z,0.49
2023-01-19T07:56:10.517Z,0.49
2023-01-19T07:57:10.510Z,0.51
2023-01-19T07:58:10.529Z,0.52
2023-01-19T07:59:10.525Z,0.52
2023-01-19T08:00:10.508Z,0.49
2023-01-19T08:01:10.622Z,0.5
2023-01-19T08:02:10.556Z,0.52
2023-01-19T08:03:10.519Z,0.54
2023-01-19T08:04:10.577Z,0.55
2023-01-19T08:05:10.522Z,0.57
2023-01-19T08:06:10.524Z,0.6
2023-01-19T08:07:10.500Z,0.61
2023-01-19T08:08:10.512Z,0.63
2023-01-19T08:09:10.515Z,0.64
2023-01-19T08:10:10.525Z,0.67
2023-01-19T08:11:10.503Z,0.68
2023-01-19T08:12:10.503Z,0.7
2023-01-19T08:13:10.518Z,0.73
2023-01-19T08:14:10.531Z,0.74
2023-01-19T08:15:10.524Z,0.75
2023-01-19T08:16:10.630Z,0.8
2023-01-19T08:17:10.519Z,0.84
2023-01-19T08:18:10.510Z,0.83
2023-01-19T08:19:10.518Z,0.83
2023-01-19T08:20:10.545Z,0.86
2023-01-19T08:21:10.521Z,0.87
2023-01-19T08:22:10.499Z,0.88
2023-01-19T08:23:10.504Z,0.88
2023-01-19T08:24:10.560Z,0.9
2023-01-19T08:25:10.532Z,0.88
2023-01-19T08:26:10.520Z,0.9
2023-01-19T08:27:11.524Z,0.91
2023-01-19T08:28:10.531Z,0.92
2023-01-19T08:29:10.512Z,0.88
2023-01-19T08:30:10.547Z,0.9
2023-01-19T08:31:20.328Z,0.88
2023-01-19T08:32:10.617Z,0.89
2023-01-19T08:33:10.520Z,0.89
2023-01-19T08:34:10.656Z,0.9
2023-01-19T08:35:10.587Z,0.88
2023-01-19T08:36:10.609Z,0.88
2023-01-19T08:37:10.511Z,0.91
2023-01-19T08:38:10.832Z,0.89
2023-01-19T08:39:10.513Z,0.89
2023-01-19T08:40:10.713Z,0.89
2023-01-19T08:41:10.514Z,0.89
2023-01-19T08:42:10.498Z,0.88
2023-01-19T08:43:10.511Z,0.86
2023-01-19T08:44:10.535Z,0.86
2023-01-19T08:45:10.565Z,0.87
2023-01-19T08:46:10.576Z,0.86
2023-01-19T08:47:10.530Z,0.86
2023-01-19T08:48:10.513Z,0.88
2023-01-19T08:49:10.516Z,0.86
2023-01-19T08:50:10.640Z,0.84
2023-01-19T08:51:10.518Z,0.83
2023-01-19T08:52:10.500Z,0.83
2023-01-19T08:53:10.509Z,0.86
2023-01-19T08:54:10.516Z,0.87
2023-01-19T08:55:10.523Z,0.9
2023-01-19T08:56:10.510Z,0.89
2023-01-19T08:57:10.515Z,0.9
2023-01-19T08:58:10.523Z,0.86
2023-01-19T08:59:14.263Z,0.86
2023-01-19T09:00:10.531Z,0.85
2023-01-19T09:01:10.555Z,0.8
2023-01-19T09:02:10.631Z,0.78
2023-01-19T09:03:10.714Z,0.76
2023-01-19T09:04:10.507Z,0.76
2023-01-19T09:05:10.525Z,0.77
2023-01-19T09:06:10.508Z,0.77
2023-01-19T09:07:10.522Z,0.79
2023-01-19T09:08:10.524Z,0.8
2023-01-19T09:09:10.508Z,0.81
2023-01-19T09:10:10.528Z,0.81
2023-01-19T09:11:10.513Z,0.84
2023-01-19T09:12:10.506Z,0.83
2023-01-19T09:13:10.502Z,0.85
2023-01-19T09:14:10.498Z,0.84
2023-01-19T09:15:10.549Z,0.86
2023-01-19T09:16:10.553Z,0.88
2023-01-19T09:17:10.513Z,0.88
2023-01-19T09:18:10.533Z,0.89
2023-01-19T09:19:10.519Z,0.89
2023-01-19T09:20:10.510Z,0.91
2023-01-19T09:21:10.523Z,0.94
2023-01-19T09:22:10.505Z,0.94
2023-01-19T09:23:10.511Z,0.96
2023-01-19T09:24:10.510Z,0.98
2023-01-19T09:25:10.518Z,0.99
2023-01-19T09:26:10.527Z,0.99
2023-01-19T09:27:10.506Z,0.99
2023-01-19T09:28:10.507Z,0.99
2023-01-19T09:29:10.511Z,0.99
2023-01-19T09:30:10.511Z,0.99
2023-01-19T09:31:10.570Z,0.98
2023-01-19T09:32:10.501Z,0.99
2023-01-19T09:33:10.514Z,0.99
2023-01-19T09:34:10.504Z,1.01
2023-01-19T09:35:10.518Z,1.03
2023-01-19T09:36:10.523Z,1.03
2023-01-19T09:37:10.511Z,1.05
2023-01-19T09:38:10.543Z,1.05
2023-01-19T09:39:10.518Z,1.01
2023-01-19T09:40:10.515Z,1
2023-01-19T09:41:10.508Z,1
2023-01-19T09:42:10.503Z,1
2023-01-19T09:43:10.511Z,1
2023-01-19T09:44:10.587Z,1
2023-01-19T09:45:13.571Z,0.97
2023-01-19T09:46:10.514Z,1
2023-01-19T09:47:10.501Z,1
2023-01-19T09:48:10.503Z,0.97
2023-01-19T09:49:10.504Z,0.98
2023-01-19T09:50:10.524Z,0.98
2023-01-19T09:51:10.516Z,0.99
2023-01-19T09:52:10.629Z,0.97
2023-01-19T09:53:10.510Z,0.95
2023-01-19T09:54:10.513Z,0.95
2023-01-19T09:55:10.500Z,0.99
2023-01-19T09:56:10.718Z,1
2023-01-19T09:57:10.527Z,0.99
2023-01-19T09:58:10.507Z,0.99
2023-01-19T09:59:10.503Z,0.98
2023-01-19T10:00:10.616Z,0.97
2023-01-19T10:01:10.562Z,0.95
2023-01-19T10:02:10.515Z,0.95
2023-01-19T10:03:10.550Z,0.94
2023-01-19T10:04:10.504Z,0.96
2023-01-19T10:05:10.530Z,0.94
2023-01-19T10:06:10.509Z,0.94
2023-01-19T10:07:10.505Z,0.87
2023-01-19T10:08:10.527Z,0.83
2023-01-19T10:09:10.522Z,0.82
2023-01-19T10:10:10.507Z,0.82
2023-01-19T10:11:10.503Z,0.81
2023-01-19T10:12:10.502Z,0.81
2023-01-19T10:13:10.516Z,0.82
2023-01-19T10:14:11.715Z,0.84
2023-01-19T10:15:10.513Z,0.84
2023-01-19T10:16:10.530Z,0.84
2023-01-19T10:17:10.747Z,0.84
2023-01-19T10:18:10.812Z,0.84
2023-01-19T10:19:10.201Z,0.83
2023-01-19T10:20:10.424Z,0.85
2023-01-19T10:21:10.782Z,0.85
2023-01-19T10:22:10.960Z,0.84
2023-01-19T10:23:10.742Z,0.86
2023-01-19T10:24:10.543Z,0.87
2023-01-19T10:25:10.795Z,0.93
2023-01-19T10:26:10.501Z,0.96
2023-01-19T10:27:10.532Z,1
2023-01-19T10:28:10.521Z,1.02
2023-01-19T10:29:12.987Z,1.02
2023-01-19T10:30:10.529Z,1.05
2023-01-19T10:31:10.665Z,1.07
2023-01-19T10:32:10.558Z,1.13
2023-01-19T10:33:10.542Z,1.16
2023-01-19T10:34:10.504Z,1.18
2023-01-19T10:35:10.542Z,1.22
2023-01-19T10:36:10.505Z,1.24
2023-01-19T10:37:10.583Z,1.28
2023-01-19T10:38:10.568Z,1.3
2023-01-19T10:39:10.520Z,1.32
2023-01-19T10:40:10.534Z,1.32
2023-01-19T10:41:10.511Z,1.35
2023-01-19T10:42:10.588Z,1.38
2023-01-19T10:43:10.715Z,1.38
2023-01-19T10:44:10.518Z,1.4
2023-01-19T10:45:10.526Z,1.4
2023-01-19T10:46:10.553Z,1.41
2023-01-19T10:47:10.521Z,1.42
2023-01-19T10:48:10.527Z,1.44
2023-01-19T10:49:10.532Z,1.44
2023-01-19T10:50:10.514Z,1.48
2023-01-19T10:51:10.528Z,1.53
2023-01-19T10:52:10.508Z,1.53
2023-01-19T10:53:10.598Z,1.56
2023-01-19T10:54:10.516Z,1.58
2023-01-19T10:55:10.546Z,1.6
2023-01-19T10:56:10.573Z,1.64
2023-01-19T10:57:10.732Z,1.65
2023-01-19T10:58:10.923Z,1.65
2023-01-19T10:59:10.590Z,1.65
2023-01-19T11:00:10.523Z,1.7
2023-01-19T11:01:10.824Z,1.69
2023-01-19T11:02:10.945Z,1.71
2023-01-19T11:03:10.770Z,1.74
2023-01-19T11:04:10.940Z,1.77
2023-01-19T11:05:10.782Z,1.78
2023-01-19T11:06:10.662Z,1.81
2023-01-19T11:07:10.530Z,1.82
2023-01-19T11:08:10.874Z,1.84
2023-01-19T11:09:10.506Z,1.84
2023-01-19T11:10:10.754Z,1.83
2023-01-19T11:11:10.650Z,1.84
2023-01-19T11:12:11.005Z,1.85
2023-01-19T11:13:10.524Z,1.89
2023-01-19T11:14:10.517Z,1.94
2023-01-19T11:15:10.523Z,1.99
2023-01-19T11:16:13.886Z,2.03
2023-01-19T11:17:10.527Z,2.06
2023-01-19T11:18:10.547Z,2.08
2023-01-19T11:19:10.528Z,2.13
2023-01-19T11:20:10.510Z,2.15
2023-01-19T11:21:10.529Z,2.17
2023-01-19T11:22:10.511Z,2.2
2023-01-19T11:23:10.548Z,2.21
2023-01-19T11:24:10.511Z,2.2
2023-01-19T11:25:10.510Z,2.19
2023-01-19T11:26:10.507Z,2.19
2023-01-19T11:27:10.513Z,2.19
2023-01-19T11:28:10.535Z,2.2
2023-01-19T11:29:10.524Z,2.22
2023-01-19T11:30:10.573Z,2.2
2023-01-19T11:31:10.571Z,2.16
2023-01-19T11:32:10.557Z,2.17
2023-01-19T11:33:10.546Z,2.14
2023-01-19T11:34:10.513Z,2.17
2023-01-19T11:35:10.542Z,2.17
2023-01-19T11:36:10.517Z,2.13
2023-01-19T11:37:10.523Z,2.1
2023-01-19T11:38:10.552Z,2.12
2023-01-19T11:39:10.518Z,2.13
2023-01-19T11:40:10.519Z,2.14
2023-01-19T11:41:10.511Z,2.09
2023-01-19T11:42:10.511Z,2.11
2023-01-19T11:43:10.530Z,2.13
2023-01-19T11:44:10.503Z,2.13
2023-01-19T11:45:10.503Z,2.12
2023-01-19T11:46:10.500Z,2.11
2023-01-19T11:47:10.505Z,2.1
2023-01-19T11:48:10.534Z,2.09
2023-01-19T11:49:10.506Z,2.1
2023-01-19T11:50:10.540Z,2.11
2023-01-19T11:51:10.519Z,2.06
2023-01-19T11:52:10.510Z,2.05
2023-01-19T11:53:10.507Z,2.06
2023-01-19T11:54:10.535Z,2.07
2023-01-19T11:55:10.532Z,2.05
2023-01-19T11:56:10.516Z,2.06
2023-01-19T11:57:10.516Z,2.08
2023-01-19T11:58:10.513Z,2.09
2023-01-19T11:59:10.517Z,2.09
2023-01-19T12:00:10.499Z,2.11
2023-01-19T12:01:10.622Z,2.04
2023-01-19T12:02:10.542Z,2.05
2023-01-19T12:03:10.599Z,2.06
2023-01-19T12:04:10.514Z,2.08
2023-01-19T12:05:10.511Z,2.04
2023-01-19T12:06:10.507Z,2.01
2023-01-19T12:07:10.577Z,2.01
2023-01-19T12:08:10.735Z,1.99
2023-01-19T12:09:10.527Z,1.98
2023-01-19T12:10:10.656Z,1.96
2023-01-19T12:11:10.565Z,1.9
2023-01-19T12:12:10.795Z,1.94
2023-01-19T12:13:10.526Z,1.91
2023-01-19T12:14:10.753Z,1.95
2023-01-19T12:15:10.506Z,1.95
2023-01-19T12:16:10.547Z,1.95
2023-01-19T12:17:10.533Z,1.99
2023-01-19T12:18:10.530Z,2.03
2023-01-19T12:19:10.518Z,2.03
2023-01-19T12:20:10.508Z,2.01
2023-01-19T12:21:10.516Z,2.02
2023-01-19T12:22:10.523Z,2.01
2023-01-19T12:23:10.528Z,2.02
2023-01-19T12:24:10.560Z,2.02
2023-01-19T12:25:10.507Z,2.04
2023-01-19T12:26:10.517Z,2.03
2023-01-19T12:27:10.512Z,2.06
2023-01-19T12:28:10.524Z,2.09
2023-01-19T12:29:10.583Z,2.13
2023-01-19T12:30:10.503Z,2.14
2023-01-19T12:31:10.568Z,2.15
2023-01-19T12:32:10.511Z,2.14
2023-01-19T12:33:10.675Z,2.18
2023-01-19T12:34:10.515Z,2.2
2023-01-19T12:35:10.508Z,2.19
2023-01-19T12:36:10.571Z,2.2
2023-01-19T12:37:12.075Z,2.21
2023-01-19T12:38:10.512Z,2.23
2023-01-19T12:39:10.513Z,2.24
2023-01-19T12:40:10.509Z,2.22
2023-01-19T12:41:10.512Z,2.27
2023-01-19T12:42:10.516Z,2.28
2023-01-19T12:43:10.509Z,2.3
2023-01-19T12:44:10.514Z,2.34
2023-01-19T12:45:10.512Z,2.36
2023-01-19T12:46:10.558Z,2.35
2023-01-19T12:47:10.502Z,2.37
2023-01-19T12:48:10.511Z,2.38
2023-01-19T12:49:10.511Z,2.42
2023-01-19T12:50:10.508Z,2.41
2023-01-19T12:51:10.505Z,2.42
2023-01-19T12:52:10.505Z,2.43
2023-01-19T12:53:10.506Z,2.42
2023-01-19T12:54:10.507Z,2.45
2023-01-19T12:55:10.514Z,2.44
2023-01-19T12:56:10.505Z,2.41
2023-01-19T12:57:10.503Z,2.39
2023-01-19T12:58:10.516Z,2.41
2023-01-19T12:59:10.505Z,2.39
2023-01-19T13:00:10.500Z,2.38
2023-01-19T13:01:10.666Z,2.34
2023-01-19T13:02:10.690Z,2.34
2023-01-19T13:03:10.545Z,2.32
2023-01-19T13:04:10.581Z,2.3
2023-01-19T13:05:10.607Z,2.31
2023-01-19T13:06:10.502Z,2.28
2023-01-19T13:07:10.701Z,2.28
2023-01-19T13:08:10.510Z,2.26
2023-01-19T13:09:10.498Z,2.24
2023-01-19T13:10:10.503Z,2.22
2023-01-19T13:11:10.504Z,2.22
2023-01-19T13:12:10.527Z,2.23
2023-01-19T13:13:10.501Z,2.2
2023-01-19T13:14:10.506Z,2.17
2023-01-19T13:15:10.515Z,2.15
2023-01-19T13:16:10.540Z,2.11
2023-01-19T13:17:10.520Z,2.13
2023-01-19T13:18:10.607Z,2.14
2023-01-19T13:19:10.513Z,2.16
2023-01-19T13:20:10.503Z,2.17
2023-01-19T13:21:10.534Z,2.16
2023-01-19T13:22:10.613Z,2.13